UIBB Airport Information

Runway Information
Runway 12 Length 10368 ft width 197 ft
Elevation 1606 ft Threshold 0 ft Heading 115
Runway 30 Length 10368 ft Width 197 ft
Elevation 1602 ft Threshold 0 ft Heading 295
Airport Frequencies
Type GND Name TAXIING Frequency 121.8 MHZ
Type MISC Name TRANSIT Frequency 131.8 MHZ
Type PMSV Name METEO Frequency 127.2 MHZ
Type TWR Name KRUG Frequency 118.1 MHZ
Airport Navaids
Type VOR-DME Name Bratsk Frequency 113600 KHZ
Type NDB Name Bratsk Frequency 374 KHZ
Type NDB Name Bratsk Frequency 374 KHZ
Airport Weather Information & NOTAM
ADDS - METARS form results

(0319 UTC 27 February 2021)
Data provider http://aviationweather.gov/metar/data/
 
METAR text: UIBB 270300Z 26006MPS 220V290 9999 NSC M23/M29 Q1026 R30/490237 NOSIG RMK QFE726/0968
Conditions at: UIBB (BRATSK/IRKUTSK , RU) observed 0300 UTC 27 February 2021
Temperature: -23.0°C (-9°F)
Dewpoint: -29.0°C (-20°F) [RH = 58%]
Pressure (altimeter): 30.30 inches Hg (1026.0 mb)
Winds: from the W (260 degrees) at 14 MPH (12 knots; 6.2 m/s)
Visibility: 6 or more miles (10+ km)
Ceiling: at least 12,000 feet AGL
Clouds: sky clear below 12,000 feet AGL
Weather: no significant weather observed at this time

METAR text: UIBB 270230Z 24005G10MPS 190V280 9999 NSC M23/M29 Q1026 R30/490237 NOSIG RMK QFE726/0968
Conditions at: UIBB (BRATSK/IRKUTSK , RU) observed 0230 UTC 27 February 2021
Temperature: -23.0°C (-9°F)
Dewpoint: -29.0°C (-20°F) [RH = 58%]
Pressure (altimeter): 30.30 inches Hg (1026.0 mb)
Winds: from the WSW (240 degrees) at 12 MPH (10 knots; 5.1 m/s)
gusting to 22 MPH (19 knots; 9.8 m/s)
Visibility: 6 or more miles (10+ km)
Ceiling: at least 12,000 feet AGL
Clouds: sky clear below 12,000 feet AGL
Weather: no significant weather observed at this time

Forecast for: UIBB (BRATSK/IRKUTSK , RU)
Text: TAF UIBB 270200Z 2703/2803 24008MPS 9999 DRSN BKN016CB
Forecast period: 0300 to 1100 UTC 27 February 2021
Forecast type: FROM: standard forecast or significant change
Winds: from the WSW (240 degrees) at 18 MPH (16 knots; 8.2 m/s)
Visibility: 6 or more miles (10+ km)
Ceiling: 1600 feet AGL
Clouds: broken clouds at 1600 feet AGL
Weather: DRSN  (low drifting snow)
Text: BECMG 2711/2713 25003G08MPS NSW
Forecast period: 1100 UTC 27 February 2021 to 0300 UTC 28 February 2021
Forecast type: BECOMING: Conditions expected to become as follows by 1300 UTC 27 February 2021
Winds: from the WSW (250 degrees) at 7 MPH (6 knots; 3.1 m/s)
gusting to 18 MPH (16 knots; 8.2 m/s)
Visibility: 6 or more miles (10+ km)
Ceiling: 1600 feet AGL
Clouds: broken clouds at 1600 feet AGL
Weather: NSW  (no significant weather)